sensor_id;sensor_type;location;lat;lon;timestamp;temperature;humidity
7476;DHT22;3779;49.216;8.650;2022-10-31T00:02:31;22.50;52.00
7476;DHT22;3779;49.216;8.650;2022-10-31T00:05:17;22.50;52.00
7476;DHT22;3779;49.216;8.650;2022-10-31T00:08:03;22.50;51.60
7476;DHT22;3779;49.216;8.650;2022-10-31T00:10:48;22.50;51.70
7476;DHT22;3779;49.216;8.650;2022-10-31T00:13:34;22.50;51.50
7476;DHT22;3779;49.216;8.650;2022-10-31T00:16:23;22.50;51.70
7476;DHT22;3779;49.216;8.650;2022-10-31T00:19:09;22.50;51.80
7476;DHT22;3779;49.216;8.650;2022-10-31T00:21:55;22.50;51.70
7476;DHT22;3779;49.216;8.650;2022-10-31T00:24:41;22.50;51.70
7476;DHT22;3779;49.216;8.650;2022-10-31T00:27:26;22.50;52.20
7476;DHT22;3779;49.216;8.650;2022-10-31T00:30:13;22.40;51.30
7476;DHT22;3779;49.216;8.650;2022-10-31T00:33:02;22.50;51.70
7476;DHT22;3779;49.216;8.650;2022-10-31T00:35:50;22.50;51.30
7476;DHT22;3779;49.216;8.650;2022-10-31T00:38:36;22.40;51.40
7476;DHT22;3779;49.216;8.650;2022-10-31T00:41:22;22.40;51.60
7476;DHT22;3779;49.216;8.650;2022-10-31T00:44:08;22.40;51.40
7476;DHT22;3779;49.216;8.650;2022-10-31T00:46:54;22.40;51.10
7476;DHT22;3779;49.216;8.650;2022-10-31T00:49:41;22.40;51.00
7476;DHT22;3779;49.216;8.650;2022-10-31T00:52:27;22.40;50.90
7476;DHT22;3779;49.216;8.650;2022-10-31T00:55:13;22.40;50.60
7476;DHT22;3779;49.216;8.650;2022-10-31T00:57:59;22.40;50.60
7476;DHT22;3779;49.216;8.650;2022-10-31T01:00:48;22.40;50.70
7476;DHT22;3779;49.216;8.650;2022-10-31T01:03:40;22.40;50.90
7476;DHT22;3779;49.216;8.650;2022-10-31T01:06:30;22.40;50.40
7476;DHT22;3779;49.216;8.650;2022-10-31T01:09:16;22.30;50.50
7476;DHT22;3779;49.216;8.650;2022-10-31T01:12:02;22.30;50.50
7476;DHT22;3779;49.216;8.650;2022-10-31T01:14:48;22.30;50.70
7476;DHT22;3779;49.216;8.650;2022-10-31T01:17:37;22.30;50.80
7476;DHT22;3779;49.216;8.650;2022-10-31T01:20:23;22.40;50.70
7476;DHT22;3779;49.216;8.650;2022-10-31T01:23:09;22.30;51.10
7476;DHT22;3779;49.216;8.650;2022-10-31T01:26:24;22.30;50.50
7476;DHT22;3779;49.216;8.650;2022-10-31T01:29:09;22.30;51.20
7476;DHT22;3779;49.216;8.650;2022-10-31T01:31:54;22.30;50.30
7476;DHT22;3779;49.216;8.650;2022-10-31T01:34:40;22.30;50.50
7476;DHT22;3779;49.216;8.650;2022-10-31T01:37:26;22.30;50.30
7476;DHT22;3779;49.216;8.650;2022-10-31T01:40:12;22.30;50.50
7476;DHT22;3779;49.216;8.650;2022-10-31T01:42:59;22.30;50.20
7476;DHT22;3779;49.216;8.650;2022-10-31T01:45:52;22.30;50.40
7476;DHT22;3779;49.216;8.650;2022-10-31T01:48:39;22.30;50.80
7476;DHT22;3779;49.216;8.650;2022-10-31T01:51:29;22.30;50.30
7476;DHT22;3779;49.216;8.650;2022-10-31T01:54:19;22.40;50.70
7476;DHT22;3779;49.216;8.650;2022-10-31T01:57:08;22.30;50.10
7476;DHT22;3779;49.216;8.650;2022-10-31T01:59:57;22.30;50.10
7476;DHT22;3779;49.216;8.650;2022-10-31T02:02:45;22.30;50.10
7476;DHT22;3779;49.216;8.650;2022-10-31T02:05:32;22.30;50.00
7476;DHT22;3779;49.216;8.650;2022-10-31T02:08:23;22.30;50.00
7476;DHT22;3779;49.216;8.650;2022-10-31T02:11:12;22.30;50.40
7476;DHT22;3779;49.216;8.650;2022-10-31T02:14:00;22.30;50.10
7476;DHT22;3779;49.216;8.650;2022-10-31T02:16:47;22.30;50.30
7476;DHT22;3779;49.216;8.650;2022-10-31T02:19:52;22.30;50.20
7476;DHT22;3779;49.216;8.650;2022-10-31T02:32:30;22.20;50.50
7476;DHT22;3779;49.216;8.650;2022-10-31T02:38:57;22.20;50.40
7476;DHT22;3779;49.216;8.650;2022-10-31T02:42:20;22.20;50.20
7476;DHT22;3779;49.216;8.650;2022-10-31T02:45:13;22.30;50.70
7476;DHT22;3779;49.216;8.650;2022-10-31T02:48:03;22.30;50.00
7476;DHT22;3779;49.216;8.650;2022-10-31T02:50:58;22.30;50.10
7476;DHT22;3779;49.216;8.650;2022-10-31T02:53:45;22.30;49.80
7476;DHT22;3779;49.216;8.650;2022-10-31T02:56:31;22.20;50.00
7476;DHT22;3779;49.216;8.650;2022-10-31T02:59:17;22.30;50.00
7476;DHT22;3779;49.216;8.650;2022-10-31T03:05:35;22.30;50.40
7476;DHT22;3779;49.216;8.650;2022-10-31T03:08:35;22.30;51.70
7476;DHT22;3779;49.216;8.650;2022-10-31T03:11:32;22.30;51.90
7476;DHT22;3779;49.216;8.650;2022-10-31T03:14:30;22.30;52.10
7476;DHT22;3779;49.216;8.650;2022-10-31T03:17:26;22.40;52.20
7476;DHT22;3779;49.216;8.650;2022-10-31T03:20:15;22.30;51.40
7476;DHT22;3779;49.216;8.650;2022-10-31T03:23:06;22.30;51.40
7476;DHT22;3779;49.216;8.650;2022-10-31T03:25:54;22.30;51.10
7476;DHT22;3779;49.216;8.650;2022-10-31T03:28:51;22.30;51.00
7476;DHT22;3779;49.216;8.650;2022-10-31T03:31:53;22.40;51.40
7476;DHT22;3779;49.216;8.650;2022-10-31T03:34:43;22.30;51.80
7476;DHT22;3779;49.216;8.650;2022-10-31T03:37:32;22.30;51.30
7476;DHT22;3779;49.216;8.650;2022-10-31T03:40:20;22.30;51.00
7476;DHT22;3779;49.216;8.650;2022-10-31T03:43:13;22.30;50.70
7476;DHT22;3779;49.216;8.650;2022-10-31T03:46:03;22.30;50.90
7476;DHT22;3779;49.216;8.650;2022-10-31T03:48:49;22.30;50.00
7476;DHT22;3779;49.216;8.650;2022-10-31T03:51:54;22.30;49.50
7476;DHT22;3779;49.216;8.650;2022-10-31T03:54:47;22.30;50.70
7476;DHT22;3779;49.216;8.650;2022-10-31T03:57:39;22.30;49.90
7476;DHT22;3779;49.216;8.650;2022-10-31T04:00:26;22.30;49.50
7476;DHT22;3779;49.216;8.650;2022-10-31T04:03:21;22.20;49.50
7476;DHT22;3779;49.216;8.650;2022-10-31T04:06:12;22.30;50.00
7476;DHT22;3779;49.216;8.650;2022-10-31T04:09:02;22.30;49.70
7476;DHT22;3779;49.216;8.650;2022-10-31T04:11:53;22.20;49.50
7476;DHT22;3779;49.216;8.650;2022-10-31T04:14:57;22.30;49.90
7476;DHT22;3779;49.216;8.650;2022-10-31T04:17:45;22.30;49.80
7476;DHT22;3779;49.216;8.650;2022-10-31T04:20:34;22.30;49.70
7476;DHT22;3779;49.216;8.650;2022-10-31T04:23:24;22.20;48.50
7476;DHT22;3779;49.216;8.650;2022-10-31T04:26:12;22.20;49.70
7476;DHT22;3779;49.216;8.650;2022-10-31T04:28:58;22.20;50.20
7476;DHT22;3779;49.216;8.650;2022-10-31T04:31:46;22.30;49.20
7476;DHT22;3779;49.216;8.650;2022-10-31T04:34:32;22.20;49.70
7476;DHT22;3779;49.216;8.650;2022-10-31T04:37:18;22.20;50.10
7476;DHT22;3779;49.216;8.650;2022-10-31T04:40:23;22.30;49.80
7476;DHT22;3779;49.216;8.650;2022-10-31T04:43:28;22.30;49.40
7476;DHT22;3779;49.216;8.650;2022-10-31T04:46:13;22.20;49.20
7476;DHT22;3779;49.216;8.650;2022-10-31T04:49:00;22.20;49.70
7476;DHT22;3779;49.216;8.650;2022-10-31T04:51:46;22.30;49.50
7476;DHT22;3779;49.216;8.650;2022-10-31T04:54:32;22.20;49.00
7476;DHT22;3779;49.216;8.650;2022-10-31T04:57:46;22.30;49.20
7476;DHT22;3779;49.216;8.650;2022-10-31T05:00:33;22.30;49.50
7476;DHT22;3779;49.216;8.650;2022-10-31T05:03:19;22.30;49.50
7476;DHT22;3779;49.216;8.650;2022-10-31T05:06:06;22.20;48.70
7476;DHT22;3779;49.216;8.650;2022-10-31T05:08:54;22.20;49.80
7476;DHT22;3779;49.216;8.650;2022-10-31T05:11:40;22.20;50.50
7476;DHT22;3779;49.216;8.650;2022-10-31T05:14:38;22.20;49.70
7476;DHT22;3779;49.216;8.650;2022-10-31T05:17:45;22.20;49.80
7476;DHT22;3779;49.216;8.650;2022-10-31T05:20:49;22.10;48.60
7476;DHT22;3779;49.216;8.650;2022-10-31T05:23:43;22.10;49.70
7476;DHT22;3779;49.216;8.650;2022-10-31T05:26:30;22.10;49.60
7476;DHT22;3779;49.216;8.650;2022-10-31T05:29:16;22.10;48.80
7476;DHT22;3779;49.216;8.650;2022-10-31T05:32:01;22.10;48.30
7476;DHT22;3779;49.216;8.650;2022-10-31T05:35:18;22.20;48.80
7476;DHT22;3779;49.216;8.650;2022-10-31T05:38:24;22.20;49.00
7476;DHT22;3779;49.216;8.650;2022-10-31T05:41:11;22.20;48.60
7476;DHT22;3779;49.216;8.650;2022-10-31T05:44:01;22.20;48.80
7476;DHT22;3779;49.216;8.650;2022-10-31T05:46:49;22.20;48.50
7476;DHT22;3779;49.216;8.650;2022-10-31T05:50:13;22.20;48.10
7476;DHT22;3779;49.216;8.650;2022-10-31T05:53:03;22.20;48.60
7476;DHT22;3779;49.216;8.650;2022-10-31T05:55:54;22.20;48.70
7476;DHT22;3779;49.216;8.650;2022-10-31T05:58:41;22.20;48.70
7476;DHT22;3779;49.216;8.650;2022-10-31T06:01:27;22.10;47.40
7476;DHT22;3779;49.216;8.650;2022-10-31T06:04:13;22.00;48.50
7476;DHT22;3779;49.216;8.650;2022-10-31T06:06:59;22.00;47.30
7476;DHT22;3779;49.216;8.650;2022-10-31T06:09:45;21.90;48.30
7476;DHT22;3779;49.216;8.650;2022-10-31T06:12:31;22.00;48.00
7476;DHT22;3779;49.216;8.650;2022-10-31T06:15:41;22.00;48.50
7476;DHT22;3779;49.216;8.650;2022-10-31T06:18:28;22.10;48.70
7476;DHT22;3779;49.216;8.650;2022-10-31T06:21:14;22.10;48.60
7476;DHT22;3779;49.216;8.650;2022-10-31T06:24:00;22.10;48.90
7476;DHT22;3779;49.216;8.650;2022-10-31T06:27:09;22.10;49.60
7476;DHT22;3779;49.216;8.650;2022-10-31T06:29:55;22.20;49.50
7476;DHT22;3779;49.216;8.650;2022-10-31T06:32:50;22.20;49.40
7476;DHT22;3779;49.216;8.650;2022-10-31T06:35:35;22.30;49.20
7476;DHT22;3779;49.216;8.650;2022-10-31T06:38:21;22.20;49.40
7476;DHT22;3779;49.216;8.650;2022-10-31T06:41:07;22.20;49.40
7476;DHT22;3779;49.216;8.650;2022-10-31T06:44:06;22.20;49.70
7476;DHT22;3779;49.216;8.650;2022-10-31T06:47:12;22.20;49.70
7476;DHT22;3779;49.216;8.650;2022-10-31T06:50:27;22.20;49.80
7476;DHT22;3779;49.216;8.650;2022-10-31T06:53:14;22.20;50.00
7476;DHT22;3779;49.216;8.650;2022-10-31T06:56:00;22.20;50.60
7476;DHT22;3779;49.216;8.650;2022-10-31T06:58:46;22.20;50.70
7476;DHT22;3779;49.216;8.650;2022-10-31T07:01:32;22.20;50.90
7476;DHT22;3779;49.216;8.650;2022-10-31T07:04:21;22.20;50.90
7476;DHT22;3779;49.216;8.650;2022-10-31T07:07:09;22.20;51.30
7476;DHT22;3779;49.216;8.650;2022-10-31T07:09:57;22.20;51.70
7476;DHT22;3779;49.216;8.650;2022-10-31T07:13:01;22.20;52.10
7476;DHT22;3779;49.216;8.650;2022-10-31T07:15:48;22.30;52.40
7476;DHT22;3779;49.216;8.650;2022-10-31T07:18:35;22.30;52.00
7476;DHT22;3779;49.216;8.650;2022-10-31T07:21:21;22.30;52.20
7476;DHT22;3779;49.216;8.650;2022-10-31T07:24:07;22.30;52.50
7476;DHT22;3779;49.216;8.650;2022-10-31T07:27:16;22.30;52.50
7476;DHT22;3779;49.216;8.650;2022-10-31T07:30:07;22.30;52.60
7476;DHT22;3779;49.216;8.650;2022-10-31T07:32:53;22.30;52.60
7476;DHT22;3779;49.216;8.650;2022-10-31T07:35:40;22.30;53.00
7476;DHT22;3779;49.216;8.650;2022-10-31T07:38:30;22.30;52.90
7476;DHT22;3779;49.216;8.650;2022-10-31T07:41:20;22.30;53.20
7476;DHT22;3779;49.216;8.650;2022-10-31T07:44:06;22.30;53.30
7476;DHT22;3779;49.216;8.650;2022-10-31T07:47:21;22.40;54.30
7476;DHT22;3779;49.216;8.650;2022-10-31T07:50:28;22.40;53.70
7476;DHT22;3779;49.216;8.650;2022-10-31T07:53:40;22.40;53.80
7476;DHT22;3779;49.216;8.650;2022-10-31T07:56:42;22.40;54.00
7476;DHT22;3779;49.216;8.650;2022-10-31T07:59:28;22.40;54.30
7476;DHT22;3779;49.216;8.650;2022-10-31T08:02:14;22.50;54.70
7476;DHT22;3779;49.216;8.650;2022-10-31T08:05:06;22.50;54.70
7476;DHT22;3779;49.216;8.650;2022-10-31T08:08:21;22.50;54.70
7476;DHT22;3779;49.216;8.650;2022-10-31T08:11:07;22.50;54.60
7476;DHT22;3779;49.216;8.650;2022-10-31T08:13:53;22.50;54.70
7476;DHT22;3779;49.216;8.650;2022-10-31T08:16:39;22.50;54.80
7476;DHT22;3779;49.216;8.650;2022-10-31T08:19:26;22.50;55.00
7476;DHT22;3779;49.216;8.650;2022-10-31T08:22:13;22.50;55.10
7476;DHT22;3779;49.216;8.650;2022-10-31T08:24:58;22.50;55.20
7476;DHT22;3779;49.216;8.650;2022-10-31T08:27:49;22.50;55.40
7476;DHT22;3779;49.216;8.650;2022-10-31T08:30:37;22.50;55.40
7476;DHT22;3779;49.216;8.650;2022-10-31T08:33:46;22.60;55.80
7476;DHT22;3779;49.216;8.650;2022-10-31T08:36:38;22.60;55.90
7476;DHT22;3779;49.216;8.650;2022-10-31T08:39:30;22.60;55.90
7476;DHT22;3779;49.216;8.650;2022-10-31T08:42:18;22.60;56.00
7476;DHT22;3779;49.216;8.650;2022-10-31T08:45:04;22.70;55.80
7476;DHT22;3779;49.216;8.650;2022-10-31T08:47:51;22.60;56.00
7476;DHT22;3779;49.216;8.650;2022-10-31T08:50:38;22.60;56.20
7476;DHT22;3779;49.216;8.650;2022-10-31T08:53:24;22.70;56.00
7476;DHT22;3779;49.216;8.650;2022-10-31T08:56:22;22.60;56.20
7476;DHT22;3779;49.216;8.650;2022-10-31T08:59:08;22.70;56.40
7476;DHT22;3779;49.216;8.650;2022-10-31T09:02:13;22.70;56.90
7476;DHT22;3779;49.216;8.650;2022-10-31T09:04:59;22.70;56.80
7476;DHT22;3779;49.216;8.650;2022-10-31T09:07:45;22.80;56.90
7476;DHT22;3779;49.216;8.650;2022-10-31T09:10:32;22.80;56.90
7476;DHT22;3779;49.216;8.650;2022-10-31T09:13:20;22.90;56.90
7476;DHT22;3779;49.216;8.650;2022-10-31T09:16:25;22.90;56.90
7476;DHT22;3779;49.216;8.650;2022-10-31T09:19:11;22.80;57.00
7476;DHT22;3779;49.216;8.650;2022-10-31T09:21:57;22.80;57.00
7476;DHT22;3779;49.216;8.650;2022-10-31T09:24:42;22.80;57.10
7476;DHT22;3779;49.216;8.650;2022-10-31T09:27:29;22.80;57.20
7476;DHT22;3779;49.216;8.650;2022-10-31T09:30:17;22.80;57.20
7476;DHT22;3779;49.216;8.650;2022-10-31T09:33:05;22.80;57.30
7476;DHT22;3779;49.216;8.650;2022-10-31T09:35:53;22.80;57.20
7476;DHT22;3779;49.216;8.650;2022-10-31T09:38:39;22.90;57.10
7476;DHT22;3779;49.216;8.650;2022-10-31T09:50:54;22.90;57.60
7476;DHT22;3779;49.216;8.650;2022-10-31T09:54:13;22.90;57.70
7476;DHT22;3779;49.216;8.650;2022-10-31T09:57:00;22.90;57.90
7476;DHT22;3779;49.216;8.650;2022-10-31T09:59:47;22.80;57.80
7476;DHT22;3779;49.216;8.650;2022-10-31T10:02:39;22.90;58.10
7476;DHT22;3779;49.216;8.650;2022-10-31T10:05:32;22.90;58.20
7476;DHT22;3779;49.216;8.650;2022-10-31T10:08:26;22.90;58.20
7476;DHT22;3779;49.216;8.650;2022-10-31T10:14:55;22.90;58.20
7476;DHT22;3779;49.216;8.650;2022-10-31T10:31:00;23.00;58.30
7476;DHT22;3779;49.216;8.650;2022-10-31T10:37:08;23.00;58.30
7476;DHT22;3779;49.216;8.650;2022-10-31T10:40:11;23.00;57.90
7476;DHT22;3779;49.216;8.650;2022-10-31T10:55:32;22.90;58.20
7476;DHT22;3779;49.216;8.650;2022-10-31T10:58:22;23.00;58.40
7476;DHT22;3779;49.216;8.650;2022-10-31T11:01:13;23.00;58.30
7476;DHT22;3779;49.216;8.650;2022-10-31T11:04:02;23.00;58.30
7476;DHT22;3779;49.216;8.650;2022-10-31T11:06:57;23.00;58.10
7476;DHT22;3779;49.216;8.650;2022-10-31T11:09:43;23.00;58.40
7476;DHT22;3779;49.216;8.650;2022-10-31T11:12:32;23.10;58.30
7476;DHT22;3779;49.216;8.650;2022-10-31T11:15:22;23.10;58.50
7476;DHT22;3779;49.216;8.650;2022-10-31T11:18:21;23.10;58.60
7476;DHT22;3779;49.216;8.650;2022-10-31T11:21:29;23.00;58.70
7476;DHT22;3779;49.216;8.650;2022-10-31T11:24:18;23.10;58.90
7476;DHT22;3779;49.216;8.650;2022-10-31T11:27:15;23.10;58.70
7476;DHT22;3779;49.216;8.650;2022-10-31T11:30:06;23.10;58.90
7476;DHT22;3779;49.216;8.650;2022-10-31T11:32:52;23.00;58.90
7476;DHT22;3779;49.216;8.650;2022-10-31T11:35:39;23.10;58.90
7476;DHT22;3779;49.216;8.650;2022-10-31T11:38:40;23.00;59.00
7476;DHT22;3779;49.216;8.650;2022-10-31T11:41:32;23.10;59.10
7476;DHT22;3779;49.216;8.650;2022-10-31T11:44:42;23.10;59.10
7476;DHT22;3779;49.216;8.650;2022-10-31T11:47:29;23.00;59.20
7476;DHT22;3779;49.216;8.650;2022-10-31T11:50:27;23.10;59.00
7476;DHT22;3779;49.216;8.650;2022-10-31T11:53:26;23.10;59.00
7476;DHT22;3779;49.216;8.650;2022-10-31T11:56:14;23.10;59.00
7476;DHT22;3779;49.216;8.650;2022-10-31T11:59:05;23.10;59.00
7476;DHT22;3779;49.216;8.650;2022-10-31T12:01:52;23.10;59.20
7476;DHT22;3779;49.216;8.650;2022-10-31T12:04:46;23.10;59.20
7476;DHT22;3779;49.216;8.650;2022-10-31T12:07:34;23.10;59.20
7476;DHT22;3779;49.216;8.650;2022-10-31T12:10:24;23.10;59.20
7476;DHT22;3779;49.216;8.650;2022-10-31T12:17:26;23.10;59.40
7476;DHT22;3779;49.216;8.650;2022-10-31T12:35:44;23.10;59.60
7476;DHT22;3779;49.216;8.650;2022-10-31T12:38:38;23.10;59.80
7476;DHT22;3779;49.216;8.650;2022-10-31T12:44:52;23.20;59.60
7476;DHT22;3779;49.216;8.650;2022-10-31T13:00:24;23.20;59.70
7476;DHT22;3779;49.216;8.650;2022-10-31T13:03:20;23.10;59.70
7476;DHT22;3779;49.216;8.650;2022-10-31T13:06:11;23.20;59.70
7476;DHT22;3779;49.216;8.650;2022-10-31T13:09:02;23.20;59.60
7476;DHT22;3779;49.216;8.650;2022-10-31T13:11:58;23.10;59.70
7476;DHT22;3779;49.216;8.650;2022-10-31T13:14:58;23.10;59.70
7476;DHT22;3779;49.216;8.650;2022-10-31T13:17:57;23.20;60.50
7476;DHT22;3779;49.216;8.650;2022-10-31T13:20:46;23.10;59.70
7476;DHT22;3779;49.216;8.650;2022-10-31T13:23:34;23.20;59.70
7476;DHT22;3779;49.216;8.650;2022-10-31T13:26:23;23.20;59.70
7476;DHT22;3779;49.216;8.650;2022-10-31T13:32:05;23.20;60.10
7476;DHT22;3779;49.216;8.650;2022-10-31T13:34:55;23.10;60.20
7476;DHT22;3779;49.216;8.650;2022-10-31T13:37:46;23.10;60.40
7476;DHT22;3779;49.216;8.650;2022-10-31T13:40:57;23.10;60.30
7476;DHT22;3779;49.216;8.650;2022-10-31T13:46:57;23.10;60.50
7476;DHT22;3779;49.216;8.650;2022-10-31T13:49:43;23.20;60.40
7476;DHT22;3779;49.216;8.650;2022-10-31T13:52:29;23.20;60.30
7476;DHT22;3779;49.216;8.650;2022-10-31T13:55:35;23.20;60.30
7476;DHT22;3779;49.216;8.650;2022-10-31T13:58:31;23.40;59.80
7476;DHT22;3779;49.216;8.650;2022-10-31T14:01:19;23.50;59.40
7476;DHT22;3779;49.216;8.650;2022-10-31T14:04:15;23.50;59.10
7476;DHT22;3779;49.216;8.650;2022-10-31T14:07:14;23.50;59.50
7476;DHT22;3779;49.216;8.650;2022-10-31T14:10:21;23.20;60.30
7476;DHT22;3779;49.216;8.650;2022-10-31T14:13:32;23.20;60.80
7476;DHT22;3779;49.216;8.650;2022-10-31T14:16:30;23.10;60.70
7476;DHT22;3779;49.216;8.650;2022-10-31T14:19:18;23.20;60.90
7476;DHT22;3779;49.216;8.650;2022-10-31T14:22:20;23.20;60.60
7476;DHT22;3779;49.216;8.650;2022-10-31T14:28:31;23.20;60.80
7476;DHT22;3779;49.216;8.650;2022-10-31T14:31:34;23.20;60.40
7476;DHT22;3779;49.216;8.650;2022-10-31T14:34:26;23.10;60.60
7476;DHT22;3779;49.216;8.650;2022-10-31T14:46:06;23.10;61.00
7476;DHT22;3779;49.216;8.650;2022-10-31T14:49:15;23.10;61.20
7476;DHT22;3779;49.216;8.650;2022-10-31T14:52:05;23.10;61.00
7476;DHT22;3779;49.216;8.650;2022-10-31T14:54:54;23.10;61.40
7476;DHT22;3779;49.216;8.650;2022-10-31T14:57:51;23.10;61.70
7476;DHT22;3779;49.216;8.650;2022-10-31T15:00:38;23.10;62.40
7476;DHT22;3779;49.216;8.650;2022-10-31T15:03:31;23.20;61.70
7476;DHT22;3779;49.216;8.650;2022-10-31T15:06:21;23.10;61.60
7476;DHT22;3779;49.216;8.650;2022-10-31T15:09:31;23.20;61.70
7476;DHT22;3779;49.216;8.650;2022-10-31T15:12:27;23.10;61.90
7476;DHT22;3779;49.216;8.650;2022-10-31T15:15:17;23.00;61.80
7476;DHT22;3779;49.216;8.650;2022-10-31T15:18:04;23.10;62.00
7476;DHT22;3779;49.216;8.650;2022-10-31T15:20:52;23.10;62.00
7476;DHT22;3779;49.216;8.650;2022-10-31T15:23:39;23.10;61.90
7476;DHT22;3779;49.216;8.650;2022-10-31T15:26:39;23.20;62.00
7476;DHT22;3779;49.216;8.650;2022-10-31T15:29:27;23.10;62.00
7476;DHT22;3779;49.216;8.650;2022-10-31T15:32:25;23.20;61.90
7476;DHT22;3779;49.216;8.650;2022-10-31T15:35:24;23.20;62.00
7476;DHT22;3779;49.216;8.650;2022-10-31T15:38:11;23.20;61.70
7476;DHT22;3779;49.216;8.650;2022-10-31T15:41:01;23.10;61.50
7476;DHT22;3779;49.216;8.650;2022-10-31T15:43:48;23.20;61.70
7476;DHT22;3779;49.216;8.650;2022-10-31T15:46:34;23.10;61.40
7476;DHT22;3779;49.216;8.650;2022-10-31T15:49:29;23.10;61.30
7476;DHT22;3779;49.216;8.650;2022-10-31T15:55:22;23.10;61.60
7476;DHT22;3779;49.216;8.650;2022-10-31T15:58:14;23.10;61.60
7476;DHT22;3779;49.216;8.650;2022-10-31T16:01:18;23.10;61.50
7476;DHT22;3779;49.216;8.650;2022-10-31T16:06:59;23.10;61.30
7476;DHT22;3779;49.216;8.650;2022-10-31T16:10:04;23.10;61.50
7476;DHT22;3779;49.216;8.650;2022-10-31T16:12:50;23.20;61.20
7476;DHT22;3779;49.216;8.650;2022-10-31T16:15:38;23.20;61.20
7476;DHT22;3779;49.216;8.650;2022-10-31T16:18:36;23.20;60.70
7476;DHT22;3779;49.216;8.650;2022-10-31T16:21:28;23.20;60.50
7476;DHT22;3779;49.216;8.650;2022-10-31T16:24:25;23.20;60.70
7476;DHT22;3779;49.216;8.650;2022-10-31T16:27:21;23.10;60.50
7476;DHT22;3779;49.216;8.650;2022-10-31T16:30:37;23.10;60.30
7476;DHT22;3779;49.216;8.650;2022-10-31T16:33:26;23.10;60.50
7476;DHT22;3779;49.216;8.650;2022-10-31T16:39:13;23.00;60.30
7476;DHT22;3779;49.216;8.650;2022-10-31T16:41:59;23.00;59.90
7476;DHT22;3779;49.216;8.650;2022-10-31T16:44:47;23.00;60.00
7476;DHT22;3779;49.216;8.650;2022-10-31T16:47:33;23.00;60.00
7476;DHT22;3779;49.216;8.650;2022-10-31T16:50:24;23.00;60.00
7476;DHT22;3779;49.216;8.650;2022-10-31T16:53:11;22.90;60.30
7476;DHT22;3779;49.216;8.650;2022-10-31T16:55:58;22.90;60.30
7476;DHT22;3779;49.216;8.650;2022-10-31T16:58:44;23.00;60.60
7476;DHT22;3779;49.216;8.650;2022-10-31T17:01:31;23.00;60.60
7476;DHT22;3779;49.216;8.650;2022-10-31T17:04:17;23.00;60.70
7476;DHT22;3779;49.216;8.650;2022-10-31T17:07:03;23.00;60.70
7476;DHT22;3779;49.216;8.650;2022-10-31T17:09:49;22.90;61.20
7476;DHT22;3779;49.216;8.650;2022-10-31T17:12:35;22.90;61.00
7476;DHT22;3779;49.216;8.650;2022-10-31T17:15:24;23.00;61.00
7476;DHT22;3779;49.216;8.650;2022-10-31T17:18:12;22.90;60.70
7476;DHT22;3779;49.216;8.650;2022-10-31T17:21:00;22.90;61.30
7476;DHT22;3779;49.216;8.650;2022-10-31T17:23:46;22.90;61.10
7476;DHT22;3779;49.216;8.650;2022-10-31T17:26:32;22.90;60.60
7476;DHT22;3779;49.216;8.650;2022-10-31T17:29:18;22.90;60.30
7476;DHT22;3779;49.216;8.650;2022-10-31T17:32:04;22.90;60.40
7476;DHT22;3779;49.216;8.650;2022-10-31T17:34:50;22.90;60.20
7476;DHT22;3779;49.216;8.650;2022-10-31T17:37:36;22.90;60.00
7476;DHT22;3779;49.216;8.650;2022-10-31T17:40:22;22.90;60.20
7476;DHT22;3779;49.216;8.650;2022-10-31T17:43:09;23.00;60.00
7476;DHT22;3779;49.216;8.650;2022-10-31T17:45:58;22.90;59.90
7476;DHT22;3779;49.216;8.650;2022-10-31T17:48:44;22.90;59.80
7476;DHT22;3779;49.216;8.650;2022-10-31T17:51:30;22.90;59.80
7476;DHT22;3779;49.216;8.650;2022-10-31T17:54:16;22.80;59.20
7476;DHT22;3779;49.216;8.650;2022-10-31T17:57:07;22.90;59.60
7476;DHT22;3779;49.216;8.650;2022-10-31T17:59:53;22.80;59.00
7476;DHT22;3779;49.216;8.650;2022-10-31T18:02:38;22.90;58.90
7476;DHT22;3779;49.216;8.650;2022-10-31T18:05:24;22.80;58.90
7476;DHT22;3779;49.216;8.650;2022-10-31T18:08:10;22.80;59.10
7476;DHT22;3779;49.216;8.650;2022-10-31T18:10:57;22.80;58.70
7476;DHT22;3779;49.216;8.650;2022-10-31T18:13:45;22.80;60.00
7476;DHT22;3779;49.216;8.650;2022-10-31T18:16:31;22.90;60.30
7476;DHT22;3779;49.216;8.650;2022-10-31T18:19:17;23.10;59.90
7476;DHT22;3779;49.216;8.650;2022-10-31T18:22:03;23.10;59.10
7476;DHT22;3779;49.216;8.650;2022-10-31T18:24:49;23.10;59.30
7476;DHT22;3779;49.216;8.650;2022-10-31T18:27:35;23.20;59.40
7476;DHT22;3779;49.216;8.650;2022-10-31T18:30:21;23.30;59.50
7476;DHT22;3779;49.216;8.650;2022-10-31T18:33:07;23.30;58.70
7476;DHT22;3779;49.216;8.650;2022-10-31T18:35:53;23.40;59.10
7476;DHT22;3779;49.216;8.650;2022-10-31T18:38:41;23.40;59.10
7476;DHT22;3779;49.216;8.650;2022-10-31T18:41:29;23.50;58.10
7476;DHT22;3779;49.216;8.650;2022-10-31T18:44:15;23.40;58.10
7476;DHT22;3779;49.216;8.650;2022-10-31T18:47:01;23.50;57.90
7476;DHT22;3779;49.216;8.650;2022-10-31T18:49:47;23.50;57.80
7476;DHT22;3779;49.216;8.650;2022-10-31T18:52:33;23.50;57.80
7476;DHT22;3779;49.216;8.650;2022-10-31T18:55:18;23.50;57.80
7476;DHT22;3779;49.216;8.650;2022-10-31T18:58:04;23.40;58.20
7476;DHT22;3779;49.216;8.650;2022-10-31T19:00:50;23.50;57.80
7476;DHT22;3779;49.216;8.650;2022-10-31T19:03:37;23.50;57.30
7476;DHT22;3779;49.216;8.650;2022-10-31T19:06:24;23.50;57.50
7476;DHT22;3779;49.216;8.650;2022-10-31T19:09:11;23.50;57.70
7476;DHT22;3779;49.216;8.650;2022-10-31T19:11:56;23.50;57.70
7476;DHT22;3779;49.216;8.650;2022-10-31T19:14:42;23.60;57.60
7476;DHT22;3779;49.216;8.650;2022-10-31T19:17:28;23.60;57.50
7476;DHT22;3779;49.216;8.650;2022-10-31T19:20:14;23.60;57.20
7476;DHT22;3779;49.216;8.650;2022-10-31T19:23:00;23.60;57.40
7476;DHT22;3779;49.216;8.650;2022-10-31T19:25:46;23.60;57.10
7476;DHT22;3779;49.216;8.650;2022-10-31T19:28:33;23.60;57.00
7476;DHT22;3779;49.216;8.650;2022-10-31T19:31:19;23.50;56.90
7476;DHT22;3779;49.216;8.650;2022-10-31T19:34:05;23.60;57.20
7476;DHT22;3779;49.216;8.650;2022-10-31T19:36:52;23.60;57.40
7476;DHT22;3779;49.216;8.650;2022-10-31T19:39:38;23.50;56.70
7476;DHT22;3779;49.216;8.650;2022-10-31T19:42:24;23.50;57.10
7476;DHT22;3779;49.216;8.650;2022-10-31T19:45:10;23.60;56.50
7476;DHT22;3779;49.216;8.650;2022-10-31T19:47:56;23.50;56.20
7476;DHT22;3779;49.216;8.650;2022-10-31T19:50:41;23.40;56.40
7476;DHT22;3779;49.216;8.650;2022-10-31T19:53:29;23.50;56.20
7476;DHT22;3779;49.216;8.650;2022-10-31T19:56:24;23.40;56.40
7476;DHT22;3779;49.216;8.650;2022-10-31T19:59:10;23.50;56.80
7476;DHT22;3779;49.216;8.650;2022-10-31T20:01:56;23.40;55.80
7476;DHT22;3779;49.216;8.650;2022-10-31T20:04:42;23.40;55.60
7476;DHT22;3779;49.216;8.650;2022-10-31T20:07:29;23.40;55.40
7476;DHT22;3779;49.216;8.650;2022-10-31T20:10:15;23.20;55.10
7476;DHT22;3779;49.216;8.650;2022-10-31T20:13:01;23.40;55.90
7476;DHT22;3779;49.216;8.650;2022-10-31T20:15:47;23.40;55.10
7476;DHT22;3779;49.216;8.650;2022-10-31T20:18:33;23.40;55.30
7476;DHT22;3779;49.216;8.650;2022-10-31T20:21:22;23.40;55.10
7476;DHT22;3779;49.216;8.650;2022-10-31T20:24:09;23.40;55.60
7476;DHT22;3779;49.216;8.650;2022-10-31T20:26:55;23.40;55.40
7476;DHT22;3779;49.216;8.650;2022-10-31T20:29:41;23.40;56.10
7476;DHT22;3779;49.216;8.650;2022-10-31T20:32:27;23.40;55.30
7476;DHT22;3779;49.216;8.650;2022-10-31T20:35:13;23.50;55.20
7476;DHT22;3779;49.216;8.650;2022-10-31T20:37:59;23.50;55.40